createdAt,value
2018-11-04T00:00:02.113Z,23.73
2018-11-04T00:02:30.146Z,20.67
2018-11-04T00:04:58.318Z,23.27
2018-11-04T00:07:26.490Z,22.57
2018-11-04T00:09:54.677Z,20.87
2018-11-04T00:12:22.851Z,28.50
2018-11-04T00:14:51.024Z,32.73
2018-11-04T00:17:19.184Z,23.13
2018-11-04T00:19:47.348Z,21.33
2018-11-04T00:22:15.528Z,26.13
2018-11-04T00:24:43.769Z,27.37
2018-11-04T00:27:11.910Z,20.40
2018-11-04T00:29:40.128Z,29.03
2018-11-04T00:32:08.289Z,25.40
2018-11-04T00:34:36.461Z,23.07
2018-11-04T00:37:04.926Z,19.63
2018-11-04T00:39:33.120Z,26.40
2018-11-04T00:42:01.253Z,23.90
2018-11-04T00:44:29.571Z,22.03
2018-11-04T00:46:57.747Z,21.63
2018-11-04T00:49:25.918Z,24.17
2018-11-04T00:51:54.127Z,27.97
2018-11-04T00:54:22.347Z,26.30
2018-11-04T00:56:50.486Z,29.60
2018-11-04T00:59:18.666Z,26.30
2018-11-04T01:01:46.812Z,26.40
2018-11-04T01:04:15.032Z,25.07
2018-11-04T01:06:43.224Z,21.67
2018-11-04T01:09:11.549Z,25.93
2018-11-04T01:11:39.697Z,27.20
2018-11-04T01:14:07.881Z,26.03
2018-11-04T01:16:36.324Z,29.60
2018-11-04T01:19:04.684Z,29.10
2018-11-04T01:21:32.861Z,46.43
2018-11-04T01:24:01.240Z,26.80
2018-11-04T01:26:29.396Z,32.90
2018-11-04T01:28:57.633Z,30.67
2018-11-04T01:31:25.873Z,31.03
2018-11-04T01:33:54.028Z,26.23
2018-11-04T01:36:22.205Z,28.87
2018-11-04T01:38:50.351Z,26.17
2018-11-04T01:41:18.516Z,37.53
2018-11-04T01:43:46.685Z,28.10
2018-11-04T01:46:14.879Z,27.03
2018-11-04T01:48:43.060Z,25.77
2018-11-04T01:51:11.255Z,31.07
2018-11-04T01:53:39.414Z,30.60
2018-11-04T01:56:07.596Z,26.30
2018-11-04T01:58:35.729Z,29.27
2018-11-04T02:01:03.868Z,29.20
2018-11-04T02:03:32.047Z,36.43
2018-11-04T02:06:00.396Z,26.83
2018-11-04T02:08:28.598Z,30.90
2018-11-04T02:10:56.804Z,29.53
2018-11-04T02:13:25.253Z,31.97
2018-11-04T02:15:53.419Z,30.30
2018-11-04T02:18:21.592Z,32.63
2018-11-04T02:20:49.780Z,41.93
2018-11-04T02:23:18.027Z,31.47
2018-11-04T02:25:46.244Z,31.57
2018-11-04T02:28:14.403Z,29.33
2018-11-04T02:30:42.527Z,30.33
2018-11-04T02:33:10.704Z,27.70
2018-11-04T02:35:38.869Z,29.17
2018-11-04T02:38:07.022Z,31.47
2018-11-04T02:40:35.244Z,26.93
2018-11-04T02:43:03.443Z,30.23
2018-11-04T02:45:31.572Z,28.60
2018-11-04T02:47:59.756Z,32.03
2018-11-04T02:50:27.930Z,30.10
2018-11-04T02:52:56.520Z,29.70
2018-11-04T02:55:24.721Z,29.87
2018-11-04T02:57:52.883Z,29.43
2018-11-04T03:00:21.147Z,35.33
2018-11-04T03:02:49.348Z,30.10
2018-11-04T03:05:17.509Z,31.27
2018-11-04T03:07:45.663Z,40.43
2018-11-04T03:10:14.587Z,34.83
2018-11-04T03:12:42.879Z,32.50
2018-11-04T03:15:11.033Z,26.93
2018-11-04T03:17:39.198Z,32.53
2018-11-04T03:20:07.377Z,30.57
2018-11-04T03:22:35.524Z,27.70
2018-11-04T03:25:03.717Z,35.33
2018-11-04T03:27:31.875Z,29.67
2018-11-04T03:30:00.031Z,30.00
2018-11-04T03:32:28.273Z,28.00
2018-11-04T03:34:56.406Z,26.57
2018-11-04T03:37:24.597Z,27.13
2018-11-04T03:39:52.748Z,34.10
2018-11-04T03:42:20.882Z,35.00
2018-11-04T03:44:49.077Z,31.23
2018-11-04T03:47:17.243Z,39.33
2018-11-04T03:49:45.385Z,32.50
2018-11-04T03:52:13.569Z,28.30
2018-11-04T03:54:41.736Z,46.67
2018-11-04T03:57:09.874Z,44.13
2018-11-04T03:59:38.041Z,27.10
2018-11-04T04:02:06.445Z,28.40
2018-11-04T04:04:34.589Z,26.23
2018-11-04T04:07:02.779Z,33.43
2018-11-04T04:09:30.936Z,27.40
2018-11-04T04:11:59.151Z,29.97
2018-11-04T04:14:27.342Z,33.23
2018-11-04T04:16:55.570Z,33.37
2018-11-04T04:19:23.754Z,29.40
2018-11-04T04:21:51.966Z,30.07
2018-11-04T04:24:20.206Z,43.63
2018-11-04T04:26:48.576Z,29.60
2018-11-04T04:29:16.735Z,41.97
2018-11-04T04:31:44.875Z,33.20
2018-11-04T04:34:13.054Z,27.83
2018-11-04T04:36:41.244Z,27.43
2018-11-04T04:39:10.196Z,32.53
2018-11-04T04:41:38.325Z,32.03
2018-11-04T04:44:06.512Z,26.33
2018-11-04T04:46:34.678Z,31.70
2018-11-04T04:49:02.852Z,29.13
2018-11-04T04:51:31.035Z,32.87
2018-11-04T04:53:59.201Z,26.20
2018-11-04T04:56:27.337Z,31.27
2018-11-04T04:58:55.581Z,38.13
2018-11-04T05:01:23.707Z,34.20
2018-11-04T05:03:51.858Z,34.80
2018-11-04T05:06:20.023Z,28.30
2018-11-04T05:08:48.169Z,34.27
2018-11-04T05:11:16.318Z,35.07
2018-11-04T05:13:44.697Z,40.50
2018-11-04T05:16:13.758Z,32.23
2018-11-04T05:18:42.152Z,37.43
2018-11-04T05:21:10.305Z,32.30
2018-11-04T05:23:38.529Z,30.67
2018-11-04T05:26:06.799Z,31.00
2018-11-04T05:28:35.083Z,31.57
2018-11-04T05:31:03.407Z,42.63
2018-11-04T05:33:31.578Z,39.50
2018-11-04T05:35:59.771Z,37.27
2018-11-04T05:38:27.975Z,35.30
2018-11-04T05:40:56.092Z,39.90
2018-11-04T05:43:24.255Z,32.00
2018-11-04T05:45:52.415Z,30.67
2018-11-04T05:48:21.037Z,32.83
2018-11-04T05:50:49.187Z,37.80
2018-11-04T05:53:17.324Z,28.20
2018-11-04T05:55:45.756Z,30.13
2018-11-04T05:58:13.980Z,33.90
2018-11-04T06:00:42.141Z,31.30
2018-11-04T06:03:10.306Z,30.17
2018-11-04T06:05:38.461Z,34.23
2018-11-04T06:08:06.624Z,31.03
2018-11-04T06:10:34.888Z,28.50
2018-11-04T06:13:03.085Z,32.33
2018-11-04T06:15:31.232Z,31.87
2018-11-04T06:18:00.327Z,32.00
2018-11-04T06:20:28.506Z,33.90
2018-11-04T06:22:56.669Z,29.60
2018-11-04T06:25:24.892Z,31.53
2018-11-04T06:27:53.092Z,38.13
2018-11-04T06:30:21.244Z,26.97
2018-11-04T06:32:49.421Z,38.83
2018-11-04T06:35:17.569Z,43.30
2018-11-04T06:37:45.770Z,33.23
2018-11-04T06:40:14.160Z,37.03
2018-11-04T06:42:42.302Z,38.67
2018-11-04T06:45:10.704Z,35.63
2018-11-04T06:47:39.127Z,35.00
2018-11-04T06:50:09.276Z,34.87
2018-11-04T06:52:37.452Z,34.10
2018-11-04T06:55:06.296Z,28.43
2018-11-04T06:57:34.517Z,27.70
2018-11-04T07:00:02.805Z,29.03
2018-11-04T07:02:30.816Z,33.33
2018-11-04T07:04:58.957Z,33.60
2018-11-04T07:07:28.069Z,33.63
2018-11-04T07:09:56.809Z,34.60
2018-11-04T07:12:24.938Z,39.57
2018-11-04T07:14:53.066Z,33.00
2018-11-04T07:17:21.404Z,40.47
2018-11-04T07:19:49.580Z,35.00
2018-11-04T07:22:17.761Z,54.43
2018-11-04T07:24:46.049Z,36.40
2018-11-04T07:27:14.201Z,32.90
2018-11-04T07:29:42.402Z,47.97
2018-11-04T07:32:10.952Z,45.37
2018-11-04T07:34:39.091Z,40.33
2018-11-04T07:37:07.264Z,39.00
2018-11-04T07:39:35.422Z,33.33
2018-11-04T07:42:03.562Z,39.83
2018-11-04T07:44:31.739Z,36.53
2018-11-04T07:46:59.875Z,37.20
2018-11-04T07:49:28.119Z,49.53
2018-11-04T07:51:56.310Z,36.27
2018-11-04T07:54:24.451Z,36.50
2018-11-04T07:56:52.693Z,38.73
2018-11-04T07:59:20.770Z,39.13
2018-11-04T08:01:48.949Z,36.50
2018-11-04T08:04:17.220Z,34.60
2018-11-04T08:06:45.340Z,39.23
2018-11-04T08:09:13.467Z,35.87
2018-11-04T08:11:41.601Z,45.10
2018-11-04T08:14:10.244Z,35.70
2018-11-04T08:16:38.397Z,38.77
2018-11-04T08:19:06.706Z,36.70
2018-11-04T08:21:35.291Z,44.03
2018-11-04T08:24:03.433Z,39.97
2018-11-04T08:26:31.638Z,34.03
2018-11-04T08:28:59.810Z,40.07
2018-11-04T08:31:28.311Z,43.60
2018-11-04T08:33:56.473Z,38.93
2018-11-04T08:36:24.608Z,92.50
2018-11-04T08:38:52.780Z,41.10
2018-11-04T08:41:21.064Z,39.80
2018-11-04T08:43:49.282Z,41.40
2018-11-04T08:46:17.515Z,42.87
2018-11-04T08:48:45.925Z,38.77
2018-11-04T08:51:14.089Z,37.53
2018-11-04T08:53:42.271Z,40.07
2018-11-04T08:56:10.750Z,45.50
2018-11-04T08:58:39.097Z,46.10
2018-11-04T09:01:07.269Z,44.53
2018-11-04T09:03:35.437Z,39.47
2018-11-04T09:06:03.773Z,36.40
2018-11-04T09:08:31.928Z,44.97
2018-11-04T09:11:01.444Z,40.17
2018-11-04T09:13:29.601Z,51.33
2018-11-04T09:15:57.783Z,37.60
2018-11-04T09:18:25.985Z,46.80
2018-11-04T09:20:54.140Z,40.70
2018-11-04T09:23:22.329Z,43.53
2018-11-04T09:25:50.497Z,43.73
2018-11-04T09:28:18.667Z,46.03
2018-11-04T09:30:46.824Z,44.80
2018-11-04T09:33:14.987Z,41.80
2018-11-04T09:35:43.546Z,42.63
2018-11-04T09:38:11.967Z,40.40
2018-11-04T09:40:40.125Z,44.37
2018-11-04T09:43:08.383Z,41.70
2018-11-04T09:45:36.536Z,41.40
2018-11-04T09:48:04.962Z,39.00
2018-11-04T09:50:33.150Z,45.90
2018-11-04T09:53:01.329Z,48.80
2018-11-04T09:55:29.490Z,37.83
2018-11-04T09:57:57.672Z,46.03
2018-11-04T10:00:25.817Z,47.23
2018-11-04T10:02:53.990Z,45.50
2018-11-04T10:05:22.240Z,45.90
2018-11-04T10:07:50.388Z,44.33
2018-11-04T10:10:18.568Z,42.90
2018-11-04T10:12:46.756Z,48.80
2018-11-04T10:15:14.905Z,45.63
2018-11-04T10:17:43.053Z,41.73
2018-11-04T10:20:12.445Z,46.63
2018-11-04T10:22:40.872Z,50.80
2018-11-04T10:25:10.353Z,39.03
2018-11-04T10:27:39.014Z,47.17
2018-11-04T10:30:09.840Z,40.83
2018-11-04T10:32:38.004Z,42.53
2018-11-04T10:35:06.441Z,40.40
2018-11-04T10:37:34.955Z,36.90
2018-11-04T10:40:03.163Z,41.53
2018-11-04T10:42:32.382Z,50.53
2018-11-04T10:45:00.572Z,49.57
2018-11-04T10:47:28.790Z,46.10
2018-11-04T10:49:56.973Z,44.03
2018-11-04T10:52:25.170Z,41.83
2018-11-04T10:54:53.416Z,45.40
2018-11-04T10:57:21.590Z,45.27
2018-11-04T10:59:49.772Z,48.77
2018-11-04T11:02:17.976Z,50.23
2018-11-04T11:04:46.277Z,50.80
2018-11-04T11:07:14.488Z,48.13
2018-11-04T11:09:43.109Z,38.77
2018-11-04T11:12:17.730Z,42.80
2018-11-04T11:14:45.948Z,46.50
2018-11-04T11:17:14.083Z,46.97
2018-11-04T11:19:42.274Z,48.70
2018-11-04T11:22:10.744Z,45.47
2018-11-04T11:24:39.139Z,57.00
2018-11-04T11:27:07.294Z,51.70
2018-11-04T11:29:35.488Z,48.50
2018-11-04T11:32:03.710Z,44.70
2018-11-04T11:34:31.864Z,49.00
2018-11-04T11:37:00.268Z,46.33
2018-11-04T11:39:28.467Z,42.23
2018-11-04T11:41:56.652Z,46.80
2018-11-04T11:44:24.887Z,48.53
2018-11-04T11:46:53.029Z,50.23
2018-11-04T11:49:21.206Z,45.90
2018-11-04T11:51:49.443Z,45.53
2018-11-04T11:54:17.697Z,46.37
2018-11-04T11:56:45.869Z,40.97
2018-11-04T11:59:14.100Z,53.13
2018-11-04T12:01:42.541Z,51.42
2018-11-04T12:04:10.691Z,41.27
2018-11-04T12:06:38.873Z,45.07
2018-11-04T12:09:07.388Z,47.67
2018-11-04T12:11:35.581Z,48.77
2018-11-04T12:14:03.743Z,47.60
2018-11-04T12:16:31.972Z,54.87
2018-11-04T12:19:00.172Z,52.13
2018-11-04T12:21:28.675Z,40.90
2018-11-04T12:23:56.866Z,48.97
2018-11-04T12:26:25.045Z,51.00
2018-11-04T12:28:53.193Z,52.47
2018-11-04T12:31:21.737Z,47.40
2018-11-04T12:33:49.886Z,56.47
2018-11-04T12:36:18.081Z,41.83
2018-11-04T12:38:46.205Z,45.27
2018-11-04T12:41:14.538Z,48.80
2018-11-04T12:43:42.732Z,55.80
2018-11-04T12:46:11.102Z,49.10
2018-11-04T12:48:39.370Z,52.03
2018-11-04T12:51:07.549Z,50.80
2018-11-04T12:53:35.744Z,51.20
2018-11-04T12:56:03.913Z,46.00
2018-11-04T12:58:32.157Z,45.00
2018-11-04T13:01:00.648Z,47.97
2018-11-04T13:03:28.759Z,48.90
2018-11-04T13:05:56.996Z,50.00
2018-11-04T13:08:25.624Z,49.57
2018-11-04T13:10:53.805Z,44.20
2018-11-04T13:13:21.972Z,46.90
2018-11-04T13:15:50.162Z,55.73
2018-11-04T13:18:18.326Z,40.63
2018-11-04T13:20:46.481Z,44.80
2018-11-04T13:23:14.808Z,46.23
2018-11-04T13:25:43.027Z,47.67
2018-11-04T13:28:11.224Z,48.30
2018-11-04T13:30:39.411Z,47.33
2018-11-04T13:33:07.623Z,40.40
2018-11-04T13:35:35.788Z,44.83
2018-11-04T13:38:04.014Z,47.03
2018-11-04T13:40:32.188Z,45.30
2018-11-04T13:43:00.398Z,44.57
2018-11-04T13:45:28.691Z,49.50
2018-11-04T13:47:56.873Z,44.00
2018-11-04T13:50:25.091Z,47.50
2018-11-04T13:52:53.334Z,50.80
2018-11-04T13:55:22.106Z,54.40
2018-11-04T13:57:50.250Z,43.97
2018-11-04T14:00:18.756Z,50.27
2018-11-04T14:02:48.602Z,54.27
2018-11-04T14:05:17.118Z,64.10
2018-11-04T14:07:46.477Z,51.90
2018-11-04T14:10:16.861Z,48.30
2018-11-04T14:12:46.220Z,54.30
2018-11-04T14:15:15.002Z,49.93
2018-11-04T14:17:45.979Z,45.50
2018-11-04T14:20:14.260Z,58.20
2018-11-04T14:22:42.728Z,51.23
2018-11-04T14:25:11.799Z,45.27
2018-11-04T14:27:39.994Z,52.43
2018-11-04T14:30:11.562Z,48.23
2018-11-04T14:32:40.001Z,53.10
2018-11-04T14:35:09.120Z,48.60
2018-11-04T14:37:37.886Z,55.57
2018-11-04T14:40:07.573Z,49.17
2018-11-04T14:42:35.763Z,49.93
2018-11-04T14:45:05.907Z,51.70
2018-11-04T14:47:34.064Z,52.93
2018-11-04T14:50:02.385Z,45.63
2018-11-04T14:52:32.049Z,45.43
2018-11-04T14:55:00.268Z,44.47
2018-11-04T14:57:28.804Z,48.13
2018-11-04T14:59:58.187Z,51.80
2018-11-04T15:02:27.129Z,44.03
2018-11-04T15:04:55.428Z,45.17
2018-11-04T15:07:23.679Z,39.30
2018-11-04T15:09:52.202Z,45.23
2018-11-04T15:12:20.551Z,49.60
2018-11-04T15:14:48.816Z,42.83
2018-11-04T15:17:17.052Z,43.00
2018-11-04T15:19:45.592Z,49.40
2018-11-04T15:22:13.813Z,42.87
2018-11-04T15:24:42.251Z,41.43
2018-11-04T15:27:10.420Z,45.80
2018-11-04T15:29:38.682Z,47.33
2018-11-04T15:32:06.882Z,41.00
2018-11-04T15:34:35.191Z,44.57
2018-11-04T15:37:03.211Z,49.13
2018-11-04T15:39:31.376Z,48.83
2018-11-04T15:41:59.568Z,43.20
2018-11-04T15:44:27.744Z,39.90
2018-11-04T15:46:55.882Z,47.40
2018-11-04T15:49:24.189Z,50.00
2018-11-04T15:51:52.561Z,49.40
2018-11-04T15:54:20.752Z,49.73
2018-11-04T15:56:48.893Z,48.10
2018-11-04T15:59:17.238Z,52.13
2018-11-04T16:01:45.388Z,46.90
2018-11-04T16:04:13.767Z,47.73
2018-11-04T16:06:42.440Z,50.43
2018-11-04T16:09:10.589Z,47.90
2018-11-04T16:11:38.784Z,40.90
2018-11-04T16:14:06.960Z,47.50
2018-11-04T16:16:35.178Z,49.90
2018-11-04T16:19:03.309Z,52.27
2018-11-04T16:21:31.539Z,47.20
2018-11-04T16:23:59.688Z,37.47
2018-11-04T16:26:28.286Z,47.83
2018-11-04T16:28:56.481Z,45.40
2018-11-04T16:31:24.639Z,49.10
2018-11-04T16:33:52.782Z,45.83
2018-11-04T16:36:21.084Z,49.97
2018-11-04T16:38:49.291Z,47.93
2018-11-04T16:41:17.457Z,43.73
2018-11-04T16:43:45.748Z,47.20
2018-11-04T16:46:13.867Z,50.87
2018-11-04T16:48:42.116Z,42.73
2018-11-04T16:51:10.388Z,43.73
2018-11-04T16:53:38.570Z,51.37
2018-11-04T16:56:06.931Z,42.33
2018-11-04T16:58:35.083Z,48.53
2018-11-04T17:01:03.293Z,44.30
2018-11-04T17:03:31.579Z,37.53
2018-11-04T17:06:00.018Z,43.50
2018-11-04T17:08:28.272Z,54.73
2018-11-04T17:10:56.702Z,44.37
2018-11-04T17:13:24.981Z,41.43
2018-11-04T17:15:53.145Z,39.03
2018-11-04T17:18:21.572Z,40.70
2018-11-04T17:20:50.140Z,41.87
2018-11-04T17:23:18.387Z,35.97
2018-11-04T17:25:46.574Z,37.80
2018-11-04T17:28:15.116Z,40.23
2018-11-04T17:30:43.301Z,45.33
2018-11-04T17:33:11.510Z,43.13
2018-11-04T17:35:39.696Z,37.20
2018-11-04T17:38:07.897Z,36.87
2018-11-04T17:40:36.318Z,32.77
2018-11-04T17:43:04.809Z,32.83
2018-11-04T17:45:33.027Z,37.00
2018-11-04T17:48:01.179Z,43.73
2018-11-04T17:50:29.483Z,42.33
2018-11-04T17:52:57.715Z,39.53
2018-11-04T17:55:25.866Z,35.50
2018-11-04T17:57:54.313Z,41.43
2018-11-04T18:00:22.534Z,38.27
2018-11-04T18:02:50.688Z,39.47
2018-11-04T18:05:19.016Z,38.00
2018-11-04T18:07:47.225Z,37.27
2018-11-04T18:10:16.174Z,33.53
2018-11-04T18:12:45.045Z,37.43
2018-11-04T18:15:14.017Z,35.67
2018-11-04T18:17:42.183Z,44.07
2018-11-04T18:20:11.196Z,38.73
2018-11-04T18:22:39.401Z,35.90
2018-11-04T18:25:08.471Z,36.80
2018-11-04T18:27:36.763Z,38.90
2018-11-04T18:30:06.488Z,37.40
2018-11-04T18:32:34.669Z,31.90
2018-11-04T18:35:02.976Z,32.63
2018-11-04T18:37:31.268Z,39.63
2018-11-04T18:39:59.454Z,36.47
2018-11-04T18:42:27.744Z,30.50
2018-11-04T18:44:56.048Z,37.97
2018-11-04T18:47:24.137Z,35.20
2018-11-04T18:49:52.430Z,36.47
2018-11-04T18:52:20.755Z,33.80
2018-11-04T18:54:48.902Z,29.97
2018-11-04T18:57:17.141Z,33.87
2018-11-04T18:59:45.436Z,29.47
2018-11-04T19:02:13.592Z,31.13
2018-11-04T19:04:41.842Z,35.33
2018-11-04T19:07:10.405Z,29.07
2018-11-04T19:09:38.673Z,39.30
2018-11-04T19:12:06.897Z,34.13
2018-11-04T19:14:35.692Z,28.40
2018-11-04T19:17:03.882Z,28.57
2018-11-04T19:19:32.086Z,34.20
2018-11-04T19:22:00.312Z,35.10
2018-11-04T19:24:28.467Z,32.07
2018-11-04T19:26:56.653Z,32.20
2018-11-04T19:29:25.929Z,35.47
2018-11-04T19:31:54.141Z,29.30
2018-11-04T19:34:22.309Z,33.83
2018-11-04T19:36:50.432Z,36.50
2018-11-04T19:39:18.681Z,36.83
2018-11-04T19:41:46.911Z,27.23
2018-11-04T19:44:14.997Z,27.73
2018-11-04T19:46:43.256Z,28.60
2018-11-04T19:49:11.694Z,31.60
2018-11-04T19:51:40.898Z,32.90
2018-11-04T19:54:09.171Z,34.47
2018-11-04T19:56:37.386Z,31.50
2018-11-04T19:59:05.624Z,38.00
2018-11-04T20:01:33.827Z,33.93
2018-11-04T20:04:01.956Z,27.63
2018-11-04T20:06:30.229Z,28.37
2018-11-04T20:09:03.802Z,24.93
2018-11-04T20:11:32.101Z,32.60
2018-11-04T20:14:05.774Z,32.80
2018-11-04T20:16:34.039Z,23.37
2018-11-04T20:19:07.812Z,27.00
2018-11-04T20:21:36.183Z,32.07
2018-11-04T20:24:09.925Z,28.50
2018-11-04T20:26:38.192Z,32.53
2018-11-04T20:29:06.549Z,28.43
2018-11-04T20:31:40.132Z,28.17
2018-11-04T20:34:08.373Z,27.90
2018-11-04T20:36:36.779Z,30.40
2018-11-04T20:39:12.778Z,26.73
2018-11-04T20:41:41.357Z,28.87
2018-11-04T20:44:09.641Z,25.47
2018-11-04T20:46:37.877Z,24.30
2018-11-04T20:49:11.518Z,21.70
2018-11-04T20:51:39.918Z,23.80
2018-11-04T20:54:08.199Z,32.83
2018-11-04T20:56:41.858Z,26.17
2018-11-04T20:59:10.076Z,32.20
2018-11-04T21:01:38.252Z,26.40
2018-11-04T21:04:06.881Z,29.10
2018-11-04T21:06:35.147Z,29.73
2018-11-04T21:09:03.341Z,25.87
2018-11-04T21:11:31.523Z,27.40
2018-11-04T21:13:59.826Z,27.60
2018-11-04T21:16:28.075Z,22.07
2018-11-04T21:18:56.245Z,24.60
2018-11-04T21:21:24.425Z,25.90
2018-11-04T21:23:52.676Z,27.57
2018-11-04T21:26:20.924Z,24.23
2018-11-04T21:28:49.243Z,25.50
2018-11-04T21:31:17.448Z,23.90
2018-11-04T21:33:45.591Z,25.20
2018-11-04T21:36:13.769Z,23.37
2018-11-04T21:38:41.948Z,25.40
2018-11-04T21:41:10.091Z,24.87
2018-11-04T21:43:38.454Z,23.00
2018-11-04T21:46:06.448Z,27.90
2018-11-04T21:48:34.833Z,23.70
2018-11-04T21:51:03.084Z,26.80
2018-11-04T21:53:31.214Z,26.07
2018-11-04T21:55:59.519Z,29.03
2018-11-04T21:58:27.695Z,27.67
2018-11-04T22:00:55.862Z,27.23
2018-11-04T22:03:24.162Z,29.90
2018-11-04T22:05:52.268Z,22.27
2018-11-04T22:08:20.467Z,22.27
2018-11-04T22:10:48.759Z,26.10
2018-11-04T22:13:16.921Z,28.43
2018-11-04T22:15:45.082Z,27.37
2018-11-04T22:18:13.305Z,27.70
2018-11-04T22:20:41.423Z,31.23
2018-11-04T22:23:09.583Z,23.87
2018-11-04T22:25:37.811Z,25.93
2018-11-04T22:28:05.956Z,29.00
2018-11-04T22:30:34.139Z,26.37
2018-11-04T22:33:02.377Z,27.97
2018-11-04T22:35:30.508Z,23.97
2018-11-04T22:37:58.690Z,24.60
2018-11-04T22:40:26.877Z,24.13
2018-11-04T22:42:55.065Z,30.90
2018-11-04T22:45:23.264Z,22.50
2018-11-04T22:47:51.516Z,22.20
2018-11-04T22:50:19.694Z,27.20
2018-11-04T22:52:47.826Z,33.03
2018-11-04T22:55:15.999Z,25.03
2018-11-04T22:57:44.704Z,22.97
2018-11-04T23:00:18.310Z,28.57
2018-11-04T23:02:47.815Z,26.03
2018-11-04T23:05:21.460Z,26.97
2018-11-04T23:07:49.780Z,25.07
2018-11-04T23:10:17.961Z,19.40
2018-11-04T23:12:46.176Z,21.23
2018-11-04T23:15:14.541Z,21.10
2018-11-04T23:17:42.889Z,22.97
2018-11-04T23:20:11.082Z,22.47
2018-11-04T23:22:39.236Z,19.20
2018-11-04T23:25:09.317Z,19.33
2018-11-04T23:27:37.492Z,18.13
2018-11-04T23:30:07.850Z,23.17
2018-11-04T23:32:36.028Z,19.30
2018-11-04T23:35:04.254Z,17.50
2018-11-04T23:37:32.379Z,19.60
2018-11-04T23:40:00.675Z,24.27
2018-11-04T23:42:29.065Z,21.27
2018-11-04T23:44:57.448Z,19.90
2018-11-04T23:47:26.620Z,20.60
2018-11-04T23:49:54.840Z,17.90
2018-11-04T23:52:23.891Z,22.20
2018-11-04T23:54:52.141Z,20.40
2018-11-04T23:57:20.961Z,18.37
2018-11-04T23:59:49.139Z,17.07
